createdAt,value
2018-07-16T00:00:29.158Z,94741.22
2018-07-16T00:02:57.924Z,94739.08
2018-07-16T00:05:26.993Z,94740.94
2018-07-16T00:07:55.757Z,94742.56
2018-07-16T00:10:24.674Z,94749.50
2018-07-16T00:12:53.489Z,94753.79
2018-07-16T00:15:22.355Z,94754.61
2018-07-16T00:17:51.197Z,94756.20
2018-07-16T00:20:19.975Z,94763.41
2018-07-16T00:22:48.926Z,94761.53
2018-07-16T00:25:17.716Z,94762.08
2018-07-16T00:27:47.295Z,94763.42
2018-07-16T00:30:16.070Z,94759.41
2018-07-16T00:32:44.858Z,94756.49
2018-07-16T00:35:13.691Z,94762.08
2018-07-16T00:37:42.486Z,94759.41
2018-07-16T00:40:11.279Z,94761.02
2018-07-16T00:42:40.052Z,94762.62
2018-07-16T00:45:08.889Z,94750.63
2018-07-16T00:47:37.664Z,94764.50
2018-07-16T00:50:06.445Z,94770.31
2018-07-16T00:52:35.230Z,94772.72
2018-07-16T00:55:04.095Z,94768.45
2018-07-16T00:57:32.970Z,94768.44
2018-07-16T01:00:02.010Z,94768.70
2018-07-16T01:02:30.807Z,94769.53
2018-07-16T01:04:59.597Z,94774.84
2018-07-16T01:07:28.411Z,94780.16
2018-07-16T01:09:57.231Z,94783.11
2018-07-16T01:12:25.995Z,94779.36
2018-07-16T01:14:55.023Z,94780.70
2018-07-16T01:17:23.787Z,94778.83
2018-07-16T01:19:52.540Z,94783.33
2018-07-16T01:22:21.386Z,94772.14
2018-07-16T01:24:50.190Z,94773.73
2018-07-16T01:27:19.077Z,94772.67
2018-07-16T01:29:47.846Z,94772.93
2018-07-16T01:32:16.707Z,94781.73
2018-07-16T01:34:45.463Z,94774.78
2018-07-16T01:37:14.227Z,94787.28
2018-07-16T01:39:42.993Z,94792.36
2018-07-16T01:42:11.791Z,94789.14
2018-07-16T01:44:40.591Z,94791.01
2018-07-16T01:47:09.425Z,94784.60
2018-07-16T01:49:38.213Z,94783.80
2018-07-16T01:52:07.126Z,94780.84
2018-07-16T01:54:36.191Z,94780.31
2018-07-16T01:57:05.006Z,94782.43
2018-07-16T01:59:33.822Z,94777.11
2018-07-16T02:02:03.002Z,94783.98
2018-07-16T02:04:38.247Z,94782.11
2018-07-16T02:07:07.075Z,94785.80
2018-07-16T02:09:36.057Z,94783.36
2018-07-16T02:12:04.862Z,94783.36
2018-07-16T02:14:49.098Z,94785.20
2018-07-16T02:17:19.230Z,94781.78
2018-07-16T02:19:49.863Z,94778.81
2018-07-16T02:22:18.821Z,94783.84
2018-07-16T02:24:47.584Z,94783.63
2018-07-16T02:27:16.421Z,94788.37
2018-07-16T02:29:45.230Z,94793.98
2018-07-16T02:32:14.003Z,94794.50
2018-07-16T02:34:42.801Z,94792.35
2018-07-16T02:37:11.555Z,94791.52
2018-07-16T02:39:40.332Z,94788.03
2018-07-16T02:42:09.747Z,94793.64
2018-07-16T02:44:38.565Z,94786.20
2018-07-16T02:47:09.461Z,94783.25
2018-07-16T02:49:38.248Z,94786.20
2018-07-16T02:52:06.978Z,94780.33
2018-07-16T02:54:35.785Z,94783.29
2018-07-16T02:57:04.580Z,94792.35
2018-07-16T02:59:33.353Z,94793.17
2018-07-16T03:02:02.176Z,94792.91
2018-07-16T03:04:30.943Z,94795.06
2018-07-16T03:06:59.702Z,94789.47
2018-07-16T03:09:28.470Z,94785.23
2018-07-16T03:11:57.292Z,94785.75
2018-07-16T03:14:26.047Z,94784.10
2018-07-16T03:16:54.898Z,94786.48
2018-07-16T03:19:23.660Z,94784.31
2018-07-16T03:21:52.807Z,94782.16
2018-07-16T03:24:21.981Z,94790.96
2018-07-16T03:26:50.850Z,94790.96
2018-07-16T03:29:19.663Z,94792.56
2018-07-16T03:31:48.455Z,94788.33
2018-07-16T03:34:17.641Z,94787.20
2018-07-16T03:36:47.849Z,94791.74
2018-07-16T03:39:16.666Z,94789.61
2018-07-16T03:41:45.599Z,94790.39
2018-07-16T03:44:14.449Z,94798.39
2018-07-16T03:46:43.210Z,94794.93
2018-07-16T03:49:12.724Z,94791.78
2018-07-16T03:51:41.532Z,94793.36
2018-07-16T03:54:10.414Z,94801.14
2018-07-16T03:56:39.185Z,94797.95
2018-07-16T03:59:08.060Z,94799.06
2018-07-16T04:01:36.854Z,94784.70
2018-07-16T04:04:05.937Z,94784.98
2018-07-16T04:06:34.761Z,94789.52
2018-07-16T04:09:05.884Z,94787.64
2018-07-16T04:11:34.715Z,94791.18
2018-07-16T04:14:03.899Z,94787.19
2018-07-16T04:16:32.925Z,94783.19
2018-07-16T04:19:01.779Z,94779.73
2018-07-16T04:21:30.903Z,94777.38
2018-07-16T04:24:00.499Z,94770.13
2018-07-16T04:26:29.371Z,94776.55
2018-07-16T04:28:58.372Z,94772.32
2018-07-16T04:31:27.165Z,94765.41
2018-07-16T04:33:55.982Z,94767.55
2018-07-16T04:36:24.937Z,94765.41
2018-07-16T04:38:53.764Z,94772.65
2018-07-16T04:41:22.662Z,94765.98
2018-07-16T04:43:51.459Z,94767.33
2018-07-16T04:46:20.252Z,94760.94
2018-07-16T04:48:49.129Z,94765.49
2018-07-16T04:51:17.941Z,94764.69
2018-07-16T04:53:46.785Z,94758.31
2018-07-16T04:56:15.899Z,94760.73
2018-07-16T04:58:44.723Z,94757.47
2018-07-16T05:01:13.563Z,94752.94
2018-07-16T05:03:42.429Z,94751.73
2018-07-16T05:06:11.241Z,94752.72
2018-07-16T05:08:40.078Z,94759.84
2018-07-16T05:11:09.107Z,94749.10
2018-07-16T05:13:38.022Z,94753.51
2018-07-16T05:16:07.526Z,94748.91
2018-07-16T05:18:36.331Z,94752.11
2018-07-16T05:21:05.117Z,94756.77
2018-07-16T05:23:33.935Z,94744.28
2018-07-16T05:26:02.729Z,94739.79
2018-07-16T05:28:31.530Z,94747.34
2018-07-16T05:31:00.372Z,94743.70
2018-07-16T05:33:29.190Z,94742.81
2018-07-16T05:35:58.050Z,94746.20
2018-07-16T05:38:26.924Z,94743.83
2018-07-16T05:40:55.772Z,94738.21
2018-07-16T05:43:24.722Z,94749.58
2018-07-16T05:45:53.557Z,94756.66
2018-07-16T05:48:22.345Z,94751.60
2018-07-16T05:50:51.159Z,94752.03
2018-07-16T05:53:20.048Z,94767.28
2018-07-16T05:55:48.842Z,94758.08
2018-07-16T05:58:17.700Z,94757.99
2018-07-16T06:00:46.671Z,94757.25
2018-07-16T06:03:15.607Z,94759.92
2018-07-16T06:05:44.409Z,94764.11
2018-07-16T06:08:13.223Z,94761.51
2018-07-16T06:10:42.058Z,94767.77
2018-07-16T06:13:10.920Z,94758.05
2018-07-16T06:15:39.805Z,94758.73
2018-07-16T06:18:08.663Z,94749.04
2018-07-16T06:20:37.623Z,94748.06
2018-07-16T06:23:06.516Z,94743.25
2018-07-16T06:25:35.421Z,94755.75
2018-07-16T06:28:04.314Z,94749.80
2018-07-16T06:30:33.172Z,94743.57
2018-07-16T06:33:01.989Z,94738.69
2018-07-16T06:35:30.807Z,94753.52
2018-07-16T06:37:59.643Z,94744.75
2018-07-16T06:40:28.558Z,94749.04
2018-07-16T06:42:57.518Z,94743.05
2018-07-16T06:45:26.374Z,94726.27
2018-07-16T06:47:55.180Z,94735.19
2018-07-16T06:50:24.171Z,94737.23
2018-07-16T06:52:53.004Z,94742.70
2018-07-16T06:55:21.788Z,94742.76
2018-07-16T06:57:50.639Z,94740.69
2018-07-16T07:00:19.495Z,94735.95
2018-07-16T07:02:48.295Z,94732.83
2018-07-16T07:05:17.120Z,94725.06
2018-07-16T07:07:46.007Z,94733.27
2018-07-16T07:10:14.895Z,94727.39
2018-07-16T07:12:43.718Z,94720.23
2018-07-16T07:15:12.638Z,94722.33
2018-07-16T07:17:41.505Z,94719.36
2018-07-16T07:20:10.429Z,94721.70
2018-07-16T07:22:39.325Z,94713.14
2018-07-16T07:25:08.301Z,94713.64
2018-07-16T07:27:37.118Z,94709.11
2018-07-16T07:30:07.182Z,94722.11
2018-07-16T07:32:36.355Z,94711.36
2018-07-16T07:35:05.399Z,94725.56
2018-07-16T07:37:34.151Z,94720.94
2018-07-16T07:40:03.012Z,94728.59
2018-07-16T07:42:32.032Z,94731.45
2018-07-16T07:45:00.894Z,94715.81
2018-07-16T07:47:29.825Z,94721.13
2018-07-16T07:49:58.803Z,94738.06
2018-07-16T07:52:27.589Z,94733.08
2018-07-16T07:54:56.759Z,94738.69
2018-07-16T07:57:25.410Z,94739.51
2018-07-16T07:59:54.211Z,94731.28
2018-07-16T08:02:22.974Z,94726.29
2018-07-16T08:04:51.790Z,94738.39
2018-07-16T08:07:20.593Z,94733.44
2018-07-16T08:09:49.407Z,94730.00
2018-07-16T08:12:18.233Z,94749.19
2018-07-16T08:14:47.415Z,94732.19
2018-07-16T08:17:16.239Z,94721.33
2018-07-16T08:19:45.070Z,94725.25
2018-07-16T08:22:13.940Z,94718.73
2018-07-16T08:24:42.869Z,94722.19
2018-07-16T08:27:11.719Z,94723.73
2018-07-16T08:29:40.521Z,94721.97
2018-07-16T08:32:09.510Z,94723.77
2018-07-16T08:34:38.374Z,94718.44
2018-07-16T08:37:07.399Z,94720.01
2018-07-16T08:39:36.267Z,94725.75
2018-07-16T08:42:05.562Z,94719.58
2018-07-16T08:44:34.371Z,94724.89
2018-07-16T08:47:03.192Z,94715.27
2018-07-16T08:49:32.019Z,94711.48
2018-07-16T08:52:00.803Z,94710.81
2018-07-16T08:54:29.618Z,94720.16
2018-07-16T08:56:58.428Z,94712.77
2018-07-16T08:59:27.319Z,94716.05
2018-07-16T09:01:56.118Z,94726.55
2018-07-16T09:04:24.930Z,94728.77
2018-07-16T09:06:53.687Z,94731.19
2018-07-16T09:09:22.510Z,94730.85
2018-07-16T09:11:51.301Z,94746.89
2018-07-16T09:14:20.149Z,94743.33
2018-07-16T09:16:49.307Z,94750.99
2018-07-16T09:19:18.320Z,94737.84
2018-07-16T09:21:47.302Z,94742.81
2018-07-16T09:24:16.090Z,94737.64
2018-07-16T09:26:44.915Z,94732.93
2018-07-16T09:29:13.712Z,94736.55
2018-07-16T09:31:42.862Z,94734.50
2018-07-16T09:34:11.661Z,94727.82
2018-07-16T09:36:40.446Z,94732.67
2018-07-16T09:39:09.810Z,94725.14
2018-07-16T09:41:38.830Z,94725.84
2018-07-16T09:44:07.631Z,94728.82
2018-07-16T09:46:36.434Z,94728.02
2018-07-16T09:49:05.491Z,94743.36
2018-07-16T09:51:34.233Z,94732.94
2018-07-16T09:54:03.066Z,94722.81
2018-07-16T09:56:31.933Z,94714.59
2018-07-16T09:59:00.879Z,94711.24
2018-07-16T10:01:34.823Z,94713.21
2018-07-16T10:04:03.671Z,94706.11
2018-07-16T10:06:32.441Z,94697.70
2018-07-16T10:09:01.339Z,94715.16
2018-07-16T10:11:30.162Z,94693.27
2018-07-16T10:14:00.504Z,94696.56
2018-07-16T10:16:29.330Z,94684.55
2018-07-16T10:18:58.089Z,94677.95
2018-07-16T10:21:27.146Z,94689.59
2018-07-16T10:23:56.042Z,94691.70
2018-07-16T10:26:24.848Z,94678.86
2018-07-16T10:28:54.571Z,94679.77
2018-07-16T10:31:23.385Z,94681.36
2018-07-16T10:33:52.353Z,94694.79
2018-07-16T10:36:21.293Z,94687.02
2018-07-16T10:38:50.094Z,94681.50
2018-07-16T10:41:19.029Z,94687.16
2018-07-16T10:43:48.023Z,94691.91
2018-07-16T10:46:16.866Z,94699.22
2018-07-16T10:48:50.149Z,94696.74
2018-07-16T10:51:19.204Z,94698.58
2018-07-16T10:53:48.397Z,94695.64
2018-07-16T10:56:17.233Z,94688.48
2018-07-16T10:58:46.063Z,94685.63
2018-07-16T11:01:14.986Z,94697.57
2018-07-16T11:03:43.762Z,94691.67
2018-07-16T11:06:17.774Z,94691.53
2018-07-16T11:08:46.574Z,94687.68
2018-07-16T11:11:15.770Z,94685.96
2018-07-16T11:13:44.582Z,94701.05
2018-07-16T11:16:13.474Z,94681.93
2018-07-16T11:18:42.247Z,94680.17
2018-07-16T11:21:11.187Z,94666.94
2018-07-16T11:23:40.118Z,94662.70
2018-07-16T11:26:09.328Z,94667.70
2018-07-16T11:28:38.164Z,94666.30
2018-07-16T11:31:06.984Z,94662.14
2018-07-16T11:33:35.858Z,94661.25
2018-07-16T11:36:05.070Z,94657.09
2018-07-16T11:38:33.882Z,94666.89
2018-07-16T11:41:02.771Z,94666.72
2018-07-16T11:43:31.656Z,94655.95
2018-07-16T11:46:00.549Z,94645.45
2018-07-16T11:48:29.576Z,94658.77
2018-07-16T11:50:58.437Z,94657.17
2018-07-16T11:53:27.276Z,94659.32
2018-07-16T11:55:56.214Z,94657.16
2018-07-16T11:58:25.096Z,94648.81
2018-07-16T12:00:54.247Z,94656.51
2018-07-16T12:03:23.089Z,94666.17
2018-07-16T12:05:52.137Z,94659.20
2018-07-16T12:08:20.943Z,94652.34
2018-07-16T12:10:49.843Z,94651.95
2018-07-16T12:13:18.627Z,94660.22
2018-07-16T12:15:47.434Z,94667.36
2018-07-16T12:18:16.287Z,94651.55
2018-07-16T12:20:45.068Z,94650.13
2018-07-16T12:23:14.004Z,94659.23
2018-07-16T12:25:42.816Z,94652.70
2018-07-16T12:28:11.644Z,94646.02
2018-07-16T12:30:40.490Z,94642.84
2018-07-16T12:33:09.315Z,94654.05
2018-07-16T12:35:38.202Z,94645.66
2018-07-16T12:38:07.056Z,94653.23
2018-07-16T12:40:35.834Z,94642.84
2018-07-16T12:43:05.016Z,94630.87
2018-07-16T12:45:33.840Z,94640.05
2018-07-16T12:48:02.670Z,94631.19
2018-07-16T12:50:31.584Z,94623.06
2018-07-16T12:53:00.509Z,94629.44
2018-07-16T12:55:29.459Z,94640.97
2018-07-16T12:57:58.413Z,94627.20
2018-07-16T13:00:27.330Z,94634.73
2018-07-16T13:02:56.127Z,94626.74
2018-07-16T13:05:25.004Z,94608.34
2018-07-16T13:07:53.787Z,94613.53
2018-07-16T13:10:29.178Z,94616.62
2018-07-16T13:12:58.623Z,94625.50
2018-07-16T13:15:27.523Z,94606.66
2018-07-16T13:17:56.470Z,94608.14
2018-07-16T13:20:25.377Z,94606.50
2018-07-16T13:22:54.207Z,94618.12
2018-07-16T13:25:23.064Z,94627.09
2018-07-16T13:27:53.287Z,94615.39
2018-07-16T13:30:24.601Z,94621.81
2018-07-16T13:32:56.772Z,94617.91
2018-07-16T13:35:25.984Z,94627.50
2018-07-16T13:37:55.024Z,94630.29
2018-07-16T13:40:24.287Z,94621.35
2018-07-16T13:42:53.107Z,94610.95
2018-07-16T13:45:21.931Z,94606.11
2018-07-16T13:47:50.758Z,94609.23
2018-07-16T13:50:20.322Z,94605.20
2018-07-16T13:52:49.311Z,94603.97
2018-07-16T13:55:19.374Z,94603.91
2018-07-16T13:57:55.951Z,94599.17
2018-07-16T14:00:25.359Z,94600.26
2018-07-16T14:02:55.391Z,94598.34
2018-07-16T14:05:24.237Z,94593.02
2018-07-16T14:07:53.070Z,94592.46
2018-07-16T14:10:21.909Z,94598.65
2018-07-16T14:12:50.707Z,94589.34
2018-07-16T14:15:19.562Z,94592.53
2018-07-16T14:17:48.423Z,94588.87
2018-07-16T14:20:17.331Z,94592.73
2018-07-16T14:22:46.250Z,94588.05
2018-07-16T14:25:15.117Z,94583.02
2018-07-16T14:27:43.946Z,94581.35
2018-07-16T14:30:12.794Z,94586.47
2018-07-16T14:32:41.635Z,94587.45
2018-07-16T14:35:10.620Z,94577.34
2018-07-16T14:37:39.468Z,94570.98
2018-07-16T14:40:08.428Z,94576.70
2018-07-16T14:42:37.471Z,94570.36
2018-07-16T14:45:12.672Z,94579.39
2018-07-16T14:47:41.662Z,94578.62
2018-07-16T14:50:10.626Z,94568.41
2018-07-16T14:52:39.450Z,94570.52
2018-07-16T14:55:08.300Z,94574.47
2018-07-16T14:57:37.199Z,94567.45
2018-07-16T15:00:08.091Z,94568.91
2018-07-16T15:02:36.894Z,94564.81
2018-07-16T15:05:05.963Z,94567.50
2018-07-16T15:07:34.811Z,94560.77
2018-07-16T15:10:04.353Z,94555.98
2018-07-16T15:12:33.545Z,94556.87
2018-07-16T15:15:02.402Z,94547.44
2018-07-16T15:17:31.604Z,94551.42
2018-07-16T15:20:00.477Z,94545.61
2018-07-16T15:22:29.823Z,94537.98
2018-07-16T15:25:03.172Z,94520.60
2018-07-16T15:27:32.162Z,94529.72
2018-07-16T15:30:00.978Z,94529.32
2018-07-16T15:32:29.798Z,94524.89
2018-07-16T15:34:58.620Z,94529.05
2018-07-16T15:37:27.474Z,94521.58
2018-07-16T15:39:56.298Z,94520.02
2018-07-16T15:42:25.102Z,94535.17
2018-07-16T15:44:53.918Z,94528.95
2018-07-16T15:47:22.763Z,94536.53
2018-07-16T15:49:51.578Z,94537.66
2018-07-16T15:52:20.431Z,94536.05
2018-07-16T15:54:49.261Z,94537.66
2018-07-16T15:57:18.054Z,94529.51
2018-07-16T15:59:46.861Z,94538.03
2018-07-16T16:02:15.727Z,94533.78
2018-07-16T16:04:44.637Z,94532.87
2018-07-16T16:07:13.457Z,94529.38
2018-07-16T16:09:42.339Z,94541.02
2018-07-16T16:12:11.217Z,94549.14
2018-07-16T16:14:40.191Z,94542.77
2018-07-16T16:17:09.082Z,94538.45
2018-07-16T16:19:38.039Z,94555.12
2018-07-16T16:22:06.901Z,94549.42
2018-07-16T16:24:35.802Z,94553.02
2018-07-16T16:27:04.689Z,94559.08
2018-07-16T16:29:33.490Z,94546.42
2018-07-16T16:32:02.410Z,94547.66
2018-07-16T16:34:31.255Z,94547.34
2018-07-16T16:37:00.057Z,94561.89
2018-07-16T16:39:28.940Z,94566.42
2018-07-16T16:41:57.810Z,94573.69
2018-07-16T16:44:27.196Z,94571.65
2018-07-16T16:46:56.630Z,94565.17
2018-07-16T16:49:25.473Z,94567.16
2018-07-16T16:51:54.757Z,94570.69
2018-07-16T16:54:23.624Z,94563.52
2018-07-16T16:56:52.470Z,94566.34
2018-07-16T16:59:21.604Z,94567.82
2018-07-16T17:01:50.451Z,94562.50
2018-07-16T17:04:21.896Z,94571.36
2018-07-16T17:06:50.735Z,94571.23
2018-07-16T17:09:19.523Z,94575.61
2018-07-16T17:11:48.353Z,94574.63
2018-07-16T17:14:17.370Z,94572.49
2018-07-16T17:16:46.179Z,94570.40
2018-07-16T17:19:15.026Z,94571.99
2018-07-16T17:21:47.379Z,94574.01
2018-07-16T17:24:16.190Z,94571.33
2018-07-16T17:26:45.823Z,94564.36
2018-07-16T17:29:14.597Z,94567.67
2018-07-16T17:31:43.418Z,94569.47
2018-07-16T17:34:12.291Z,94568.68
2018-07-16T17:36:44.183Z,94565.23
2018-07-16T17:39:15.525Z,94557.64
2018-07-16T17:41:44.344Z,94562.38
2018-07-16T17:44:13.191Z,94554.02
2018-07-16T17:46:41.985Z,94558.63
2018-07-16T17:49:10.835Z,94563.59
2018-07-16T17:51:39.647Z,94565.02
2018-07-16T17:54:08.853Z,94562.48
2018-07-16T17:56:37.743Z,94567.74
2018-07-16T17:59:06.810Z,94570.61
2018-07-16T18:01:35.720Z,94564.58
2018-07-16T18:04:04.682Z,94565.48
2018-07-16T18:06:33.469Z,94569.45
2018-07-16T18:09:02.300Z,94563.11
2018-07-16T18:11:31.303Z,94564.22
2018-07-16T18:14:00.224Z,94547.38
2018-07-16T18:16:29.020Z,94547.76
2018-07-16T18:18:57.883Z,94537.58
2018-07-16T18:21:27.447Z,94543.19
2018-07-16T18:23:56.428Z,94536.48
2018-07-16T18:26:25.205Z,94535.98
2018-07-16T18:28:54.094Z,94543.45
2018-07-16T18:31:22.881Z,94547.15
2018-07-16T18:33:52.005Z,94545.67
2018-07-16T18:36:20.801Z,94549.70
2018-07-16T18:38:49.687Z,94550.81
2018-07-16T18:41:18.532Z,94552.98
2018-07-16T18:43:47.320Z,94558.35
2018-07-16T18:46:16.106Z,94557.27
2018-07-16T18:48:44.979Z,94550.85
2018-07-16T18:51:13.860Z,94557.52
2018-07-16T18:53:43.328Z,94563.36
2018-07-16T18:56:12.394Z,94559.44
2018-07-16T18:58:41.379Z,94554.45
2018-07-16T19:01:10.802Z,94556.09
2018-07-16T19:03:40.162Z,94550.69
2018-07-16T19:06:09.092Z,94550.15
2018-07-16T19:08:37.886Z,94552.55
2018-07-16T19:11:13.860Z,94548.33
2018-07-16T19:13:43.036Z,94545.20
2018-07-16T19:16:12.334Z,94551.33
2018-07-16T19:18:41.107Z,94547.31
2018-07-16T19:21:09.911Z,94559.85
2018-07-16T19:23:40.344Z,94555.92
2018-07-16T19:26:09.110Z,94544.09
2018-07-16T19:28:37.982Z,94549.09
2018-07-16T19:31:06.954Z,94548.27
2018-07-16T19:33:35.778Z,94540.06
2018-07-16T19:36:04.613Z,94543.32
2018-07-16T19:38:33.406Z,94544.73
2018-07-16T19:41:02.333Z,94548.33
2018-07-16T19:43:31.266Z,94535.56
2018-07-16T19:46:00.493Z,94535.56
2018-07-16T19:48:29.758Z,94536.39
2018-07-16T19:50:58.762Z,94537.47
2018-07-16T19:53:27.735Z,94539.93
2018-07-16T19:55:56.771Z,94534.63
2018-07-16T19:58:25.558Z,94537.88
2018-07-16T20:00:54.338Z,94549.11
2018-07-16T20:03:23.314Z,94541.84
2018-07-16T20:05:53.220Z,94538.56
2018-07-16T20:08:22.192Z,94538.56
2018-07-16T20:10:51.018Z,94541.27
2018-07-16T20:13:19.877Z,94543.52
2018-07-16T20:15:49.011Z,94541.64
2018-07-16T20:18:17.876Z,94522.34
2018-07-16T20:20:56.056Z,94520.75
2018-07-16T20:23:25.076Z,94525.03
2018-07-16T20:25:55.471Z,94524.57
2018-07-16T20:28:24.381Z,94518.51
2018-07-16T20:30:53.180Z,94521.75
2018-07-16T20:33:22.047Z,94518.39
2018-07-16T20:35:50.920Z,94518.73
2018-07-16T20:38:19.709Z,94516.17
2018-07-16T20:40:48.559Z,94513.31
2018-07-16T20:43:17.339Z,94511.29
2018-07-16T20:45:46.137Z,94510.28
2018-07-16T20:48:15.973Z,94512.80
2018-07-16T20:50:44.782Z,94505.39
2018-07-16T20:53:13.639Z,94501.97
2018-07-16T20:55:42.415Z,94495.66
2018-07-16T20:58:11.152Z,94493.36
2018-07-16T21:00:43.001Z,94491.55
2018-07-16T21:03:12.673Z,94492.63
2018-07-16T21:05:41.474Z,94500.48
2018-07-16T21:08:10.297Z,94498.67
2018-07-16T21:10:39.077Z,94488.33
2018-07-16T21:13:08.782Z,94486.48
2018-07-16T21:15:37.519Z,94494.04
2018-07-16T21:18:06.306Z,94498.87
2018-07-16T21:20:35.081Z,94503.44
2018-07-16T21:23:03.931Z,94498.33
2018-07-16T21:25:32.852Z,94494.86
2018-07-16T21:28:01.600Z,94489.98
2018-07-16T21:30:30.417Z,94492.03
2018-07-16T21:32:59.820Z,94496.89
2018-07-16T21:35:28.699Z,94500.05
2018-07-16T21:37:57.487Z,94497.64
2018-07-16T21:40:26.331Z,94493.52
2018-07-16T21:42:56.747Z,94490.34
2018-07-16T21:45:25.568Z,94485.06
2018-07-16T21:47:54.332Z,94480.53
2018-07-16T21:50:23.089Z,94488.80
2018-07-16T21:52:52.269Z,94483.45
2018-07-16T21:55:21.076Z,94488.84
2018-07-16T21:57:49.861Z,94487.55
2018-07-16T22:00:28.025Z,94493.79
2018-07-16T22:02:57.533Z,94486.65
2018-07-16T22:05:27.457Z,94489.38
2018-07-16T22:07:57.297Z,94487.80
2018-07-16T22:10:27.097Z,94490.80
2018-07-16T22:12:57.251Z,94494.28
2018-07-16T22:15:27.245Z,94499.63
2018-07-16T22:17:57.258Z,94494.00
2018-07-16T22:20:26.954Z,94492.13
2018-07-16T22:22:55.961Z,94502.50
2018-07-16T22:25:25.679Z,94498.49
2018-07-16T22:27:54.662Z,94492.08
2018-07-16T22:30:23.529Z,94494.48
2018-07-16T22:32:53.323Z,94495.87
2018-07-16T22:35:22.165Z,94487.59
2018-07-16T22:37:50.947Z,94489.42
2018-07-16T22:40:19.751Z,94487.59
2018-07-16T22:42:48.530Z,94487.08
2018-07-16T22:45:17.306Z,94481.80
2018-07-16T22:47:46.086Z,94488.28
2018-07-16T22:50:14.868Z,94485.13
2018-07-16T22:52:43.631Z,94480.37
2018-07-16T22:55:12.392Z,94482.03
2018-07-16T22:57:41.155Z,94471.95
2018-07-16T23:00:10.083Z,94483.75
2018-07-16T23:02:38.849Z,94476.02
2018-07-16T23:05:07.714Z,94468.59
2018-07-16T23:07:36.545Z,94461.40
2018-07-16T23:10:05.437Z,94466.73
2018-07-16T23:12:34.226Z,94465.14
2018-07-16T23:15:03.031Z,94472.88
2018-07-16T23:17:32.018Z,94469.67
2018-07-16T23:20:00.776Z,94473.09
2018-07-16T23:22:29.575Z,94458.66
2018-07-16T23:24:58.318Z,94459.68
2018-07-16T23:27:27.145Z,94453.00
2018-07-16T23:29:55.951Z,94454.86
2018-07-16T23:32:24.702Z,94447.88
2018-07-16T23:34:53.453Z,94447.35
2018-07-16T23:37:22.245Z,94459.36
2018-07-16T23:39:51.058Z,94454.61
2018-07-16T23:42:19.899Z,94458.34
2018-07-16T23:44:48.710Z,94452.52
2018-07-16T23:47:17.522Z,94462.89
2018-07-16T23:49:46.336Z,94458.94
2018-07-16T23:52:15.157Z,94454.94
2018-07-16T23:54:43.946Z,94461.92
2018-07-16T23:57:12.745Z,94453.64
2018-07-16T23:59:41.562Z,94443.78
